createdAt,value
2019-02-10T00:02:28.113Z,4.66
2019-02-10T00:07:35.746Z,5.70
2019-02-10T00:12:43.376Z,5.28
2019-02-10T00:17:50.988Z,4.19
2019-02-10T00:22:58.678Z,4.44
2019-02-10T00:28:06.287Z,4.73
2019-02-10T00:33:13.937Z,5.00
2019-02-10T00:38:21.562Z,4.15
2019-02-10T00:43:29.218Z,4.73
2019-02-10T00:48:36.866Z,4.66
2019-02-10T00:53:44.577Z,4.29
2019-02-10T00:58:52.214Z,4.89
2019-02-10T01:03:59.893Z,4.71
2019-02-10T01:09:07.520Z,5.19
2019-02-10T01:14:15.199Z,4.29
2019-02-10T01:19:22.855Z,4.59
2019-02-10T01:24:30.502Z,5.62
2019-02-10T01:29:38.150Z,4.97
2019-02-10T01:34:45.836Z,4.72
2019-02-10T01:39:54.373Z,5.67
2019-02-10T01:45:00.738Z,5.27
2019-02-10T01:50:08.358Z,4.71
2019-02-10T01:55:16.106Z,4.90
2019-02-10T02:00:23.745Z,5.48
2019-02-10T02:05:31.413Z,4.88
2019-02-10T02:10:39.036Z,4.81
2019-02-10T02:15:46.707Z,5.39
2019-02-10T02:20:54.336Z,5.04
2019-02-10T02:26:02.016Z,5.38
2019-02-10T02:31:09.664Z,5.34
2019-02-10T02:36:17.330Z,4.28
2019-02-10T02:41:24.935Z,4.57
2019-02-10T02:46:38.736Z,4.02
2019-02-10T02:51:36.348Z,3.90
2019-02-10T02:56:44.021Z,4.13
2019-02-10T03:01:51.677Z,4.32
2019-02-10T03:06:59.373Z,4.26
2019-02-10T03:12:06.998Z,3.98
2019-02-10T03:17:14.645Z,4.27
2019-02-10T03:22:22.284Z,4.29
2019-02-10T03:27:29.938Z,4.29
2019-02-10T03:32:37.633Z,4.31
2019-02-10T03:37:45.315Z,4.05
2019-02-10T03:42:52.936Z,4.00
2019-02-10T03:48:00.592Z,4.12
2019-02-10T03:53:08.205Z,4.01
2019-02-10T03:58:15.842Z,3.41
2019-02-10T04:03:23.462Z,3.61
2019-02-10T04:08:31.218Z,3.47
2019-02-10T04:13:38.844Z,3.38
2019-02-10T04:18:46.498Z,3.06
2019-02-10T04:23:54.117Z,2.97
2019-02-10T04:29:01.813Z,3.28
2019-02-10T04:34:09.468Z,3.22
2019-02-10T04:39:17.140Z,3.14
2019-02-10T04:44:24.753Z,3.34
2019-02-10T04:49:32.454Z,2.93
2019-02-10T04:54:40.126Z,3.44
2019-02-10T04:59:47.810Z,3.25
2019-02-10T05:04:55.645Z,3.01
2019-02-10T05:10:03.296Z,2.64
2019-02-10T05:15:10.916Z,3.09
2019-02-10T05:20:18.604Z,2.98
2019-02-10T05:25:26.229Z,3.07
2019-02-10T05:30:33.930Z,2.66
2019-02-10T05:35:41.557Z,2.68
2019-02-10T05:40:49.260Z,2.76
2019-02-10T05:45:56.879Z,2.99
2019-02-10T05:51:04.528Z,3.08
2019-02-10T05:56:12.167Z,3.13
2019-02-10T06:01:19.892Z,3.28
2019-02-10T06:06:27.514Z,3.30
2019-02-10T06:11:35.150Z,3.36
2019-02-10T06:16:42.773Z,3.61
2019-02-10T06:21:50.420Z,3.48
2019-02-10T06:26:58.033Z,3.74
2019-02-10T06:32:05.673Z,3.78
2019-02-10T06:37:13.290Z,4.15
2019-02-10T06:42:20.932Z,4.84
2019-02-10T06:47:28.569Z,4.39
2019-02-10T06:52:36.257Z,3.99
2019-02-10T06:57:43.913Z,4.69
2019-02-10T07:02:51.565Z,4.73
2019-02-10T07:07:59.261Z,4.16
2019-02-10T07:13:06.899Z,4.50
2019-02-10T07:18:14.574Z,4.75
2019-02-10T07:23:22.214Z,4.77
2019-02-10T07:28:29.890Z,4.58
2019-02-10T07:33:37.500Z,4.92
2019-02-10T07:38:45.195Z,3.37
2019-02-10T07:43:52.842Z,4.32
2019-02-10T07:49:01.300Z,4.42
2019-02-10T07:54:08.956Z,4.37
2019-02-10T07:59:16.617Z,3.21
2019-02-10T08:04:24.444Z,4.60
2019-02-10T08:09:32.144Z,4.56
2019-02-10T08:14:40.226Z,5.25
2019-02-10T08:19:47.902Z,3.29
2019-02-10T08:24:55.636Z,4.73
2019-02-10T08:30:03.264Z,5.28
2019-02-10T08:35:10.936Z,4.81
2019-02-10T08:40:18.568Z,5.04
2019-02-10T08:45:26.196Z,5.45
2019-02-10T08:50:33.865Z,4.91
2019-02-10T08:55:41.574Z,4.40
2019-02-10T09:00:49.222Z,4.36
2019-02-10T09:05:56.923Z,2.57
2019-02-10T09:11:04.551Z,3.08
2019-02-10T09:16:12.217Z,2.95
2019-02-10T09:21:19.878Z,3.22
2019-02-10T09:26:27.561Z,3.03
2019-02-10T09:31:35.213Z,3.13
2019-02-10T09:36:43.086Z,2.14
2019-02-10T09:41:50.770Z,3.16
2019-02-10T09:46:58.381Z,2.51
2019-02-10T09:52:06.061Z,2.30
2019-02-10T09:57:13.743Z,2.04
2019-02-10T10:02:21.382Z,2.48
2019-02-10T10:07:29.028Z,3.24
2019-02-10T10:12:36.736Z,3.43
2019-02-10T10:17:44.352Z,3.98
2019-02-10T10:22:52.053Z,4.92
2019-02-10T10:27:59.716Z,5.66
2019-02-10T10:33:07.372Z,6.51
2019-02-10T10:38:14.993Z,7.24
2019-02-10T10:43:22.645Z,7.73
2019-02-10T10:48:30.300Z,9.07
2019-02-10T10:53:37.956Z,11.26
2019-02-10T10:58:45.701Z,7.94
2019-02-10T11:03:53.343Z,11.65
2019-02-10T11:09:01.000Z,12.01
2019-02-10T11:14:08.658Z,11.81
2019-02-10T11:19:16.340Z,12.19
2019-02-10T11:24:28.759Z,12.02
2019-02-10T11:29:31.745Z,14.36
2019-02-10T11:34:46.088Z,13.98
2019-02-10T11:39:46.573Z,16.36
2019-02-10T11:44:54.225Z,11.08
2019-02-10T11:50:01.872Z,14.26
2019-02-10T11:55:09.505Z,16.81
2019-02-10T12:00:17.166Z,14.22
2019-02-10T12:05:24.804Z,15.95
2019-02-10T12:10:33.667Z,12.49
2019-02-10T12:15:41.292Z,11.88
2019-02-10T12:20:48.948Z,11.04
2019-02-10T12:25:56.569Z,11.72
2019-02-10T12:31:04.289Z,9.66
2019-02-10T12:36:11.925Z,7.10
2019-02-10T12:41:19.573Z,7.18
2019-02-10T12:46:27.187Z,5.69
2019-02-10T12:51:34.846Z,5.82
2019-02-10T12:56:42.494Z,5.40
2019-02-10T13:01:50.153Z,5.37
2019-02-10T13:06:57.773Z,5.56
2019-02-10T13:12:05.488Z,5.33
2019-02-10T13:17:13.146Z,5.12
2019-02-10T13:22:21.164Z,5.63
2019-02-10T13:27:29.724Z,4.83
2019-02-10T13:32:37.384Z,4.50
2019-02-10T13:37:45.009Z,4.74
2019-02-10T13:42:52.699Z,5.65
2019-02-10T13:48:00.501Z,5.51
2019-02-10T13:53:09.146Z,6.19
2019-02-10T13:58:15.428Z,6.56
2019-02-10T14:03:23.389Z,6.49
2019-02-10T14:08:31.074Z,5.49
2019-02-10T14:13:38.792Z,2.34
2019-02-10T14:18:46.426Z,3.46
2019-02-10T14:23:54.115Z,3.24
2019-02-10T14:29:01.728Z,3.38
2019-02-10T14:34:09.365Z,4.58
2019-02-10T14:39:16.980Z,5.45
2019-02-10T14:44:24.681Z,3.63
2019-02-10T14:49:32.389Z,3.42
2019-02-10T14:54:40.126Z,2.31
2019-02-10T14:59:47.753Z,2.13
2019-02-10T15:04:55.369Z,1.80
2019-02-10T15:10:03.008Z,1.30
2019-02-10T15:15:10.644Z,1.12
2019-02-10T15:20:18.321Z,1.71
2019-02-10T15:25:25.970Z,2.22
2019-02-10T15:30:33.625Z,3.68
2019-02-10T15:35:41.281Z,4.98
2019-02-10T15:40:50.273Z,4.76
2019-02-10T15:45:56.041Z,4.90
2019-02-10T15:51:03.694Z,5.11
2019-02-10T15:56:11.321Z,6.04
2019-02-10T16:01:18.983Z,5.88
2019-02-10T16:06:26.628Z,6.04
2019-02-10T16:11:34.289Z,6.89
2019-02-10T16:16:42.045Z,7.64
2019-02-10T16:21:49.697Z,8.61
2019-02-10T16:26:57.425Z,8.21
2019-02-10T16:32:07.017Z,5.66
2019-02-10T16:37:15.074Z,4.98
2019-02-10T16:42:22.725Z,5.49
2019-02-10T16:47:30.371Z,5.43
2019-02-10T16:52:39.455Z,6.85
2019-02-10T16:57:45.241Z,6.82
2019-02-10T17:02:52.862Z,10.14
2019-02-10T17:08:00.597Z,8.08
2019-02-10T17:13:08.261Z,7.88
2019-02-10T17:18:15.953Z,7.45
2019-02-10T17:23:23.579Z,7.16
2019-02-10T17:28:31.220Z,5.99
2019-02-10T17:33:38.845Z,6.96
2019-02-10T17:38:46.562Z,7.34
2019-02-10T17:43:54.234Z,5.56
2019-02-10T17:49:01.881Z,6.92
2019-02-10T17:52:56.613Z,4.31
2019-02-10T17:58:04.325Z,2.05
2019-02-10T18:03:12.040Z,1.86
2019-02-10T18:08:19.700Z,2.06
2019-02-10T18:13:28.294Z,2.16
2019-02-10T18:18:34.527Z,2.27
2019-02-10T18:23:42.321Z,3.02
2019-02-10T18:28:49.972Z,2.94
2019-02-10T18:33:57.644Z,3.57
2019-02-10T18:39:08.074Z,3.83
2019-02-10T18:44:05.744Z,3.33
2019-02-10T18:49:13.388Z,3.86
2019-02-10T18:54:21.894Z,2.91
2019-02-10T18:59:29.549Z,3.76
2019-02-10T19:04:37.209Z,4.27
2019-02-10T19:09:44.854Z,3.73
2019-02-10T19:14:52.617Z,4.23
2019-02-10T19:20:00.264Z,3.75
2019-02-10T19:25:07.930Z,2.61
2019-02-10T19:30:15.567Z,2.71
2019-02-10T19:35:23.311Z,3.42
2019-02-10T19:40:30.952Z,4.01
2019-02-10T19:45:38.644Z,3.32
2019-02-10T19:50:46.286Z,2.02
2019-02-10T19:55:53.966Z,2.03
2019-02-10T20:01:01.601Z,2.16
2019-02-10T20:06:09.317Z,2.90
2019-02-10T20:11:16.990Z,2.77
2019-02-10T20:16:24.670Z,2.77
2019-02-10T20:21:32.289Z,3.44
2019-02-10T20:26:40.000Z,5.00
2019-02-10T20:31:47.648Z,4.86
2019-02-10T20:36:55.320Z,4.83
2019-02-10T20:42:02.954Z,4.94
2019-02-10T20:47:10.688Z,4.50
2019-02-10T20:52:18.308Z,3.33
2019-02-10T20:57:26.034Z,2.40
2019-02-10T21:02:33.691Z,2.37
2019-02-10T21:07:41.357Z,2.48
2019-02-10T21:12:49.006Z,2.82
2019-02-10T21:17:56.662Z,3.15
2019-02-10T21:23:04.279Z,3.20
2019-02-10T21:28:11.930Z,3.24
2019-02-10T21:33:19.581Z,3.50
2019-02-10T21:38:27.293Z,3.48
2019-02-10T21:43:34.938Z,3.83
2019-02-10T21:48:42.599Z,3.83
2019-02-10T21:53:50.212Z,4.38
2019-02-10T21:58:58.026Z,3.48
2019-02-10T22:04:05.668Z,4.31
2019-02-10T22:09:13.400Z,4.38
2019-02-10T22:14:21.040Z,4.95
2019-02-10T22:19:29.347Z,6.06
2019-02-10T22:24:36.924Z,7.19
2019-02-10T22:29:44.610Z,6.32
2019-02-10T22:34:52.244Z,8.42
2019-02-10T22:39:59.930Z,9.77
2019-02-10T22:45:07.587Z,10.82
2019-02-10T22:50:15.376Z,11.94
2019-02-10T22:55:22.997Z,13.32
2019-02-10T23:00:30.716Z,5.31
2019-02-10T23:05:38.381Z,3.94
2019-02-10T23:10:46.112Z,3.19
2019-02-10T23:15:53.750Z,3.73
2019-02-10T23:21:01.424Z,4.38
2019-02-10T23:26:09.039Z,5.07
2019-02-10T23:31:16.791Z,6.50
2019-02-10T23:36:24.416Z,6.95
2019-02-10T23:41:32.119Z,7.90
2019-02-10T23:46:39.729Z,2.88
2019-02-10T23:51:47.444Z,2.65
2019-02-10T23:56:55.061Z,4.75
